createdAt,value
2019-02-08T00:00:12.411Z,996.17
2019-02-08T00:01:12.424Z,996.16
2019-02-08T00:02:12.442Z,996.18
2019-02-08T00:03:12.463Z,996.16
2019-02-08T00:04:12.477Z,996.18
2019-02-08T00:05:12.493Z,996.17
2019-02-08T00:06:12.518Z,996.19
2019-02-08T00:07:12.533Z,996.12
2019-02-08T00:08:12.547Z,996.19
2019-02-08T00:09:12.564Z,996.18
2019-02-08T00:10:12.580Z,996.21
2019-02-08T00:11:12.603Z,996.23
2019-02-08T00:12:12.615Z,996.21
2019-02-08T00:13:12.634Z,996.23
2019-02-08T00:14:12.650Z,996.24
2019-02-08T00:15:12.667Z,996.24
2019-02-08T00:16:12.685Z,996.26
2019-02-08T00:17:12.719Z,996.24
2019-02-08T00:18:12.720Z,996.27
2019-02-08T00:19:12.738Z,996.29
2019-02-08T00:20:12.755Z,996.26
2019-02-08T00:21:12.776Z,996.26
2019-02-08T00:22:12.788Z,996.31
2019-02-08T00:23:12.814Z,996.32
2019-02-08T00:24:12.824Z,996.3
2019-02-08T00:25:12.845Z,996.32
2019-02-08T00:26:12.862Z,996.34
2019-02-08T00:27:12.876Z,996.34
2019-02-08T00:28:12.895Z,996.39
2019-02-08T00:29:12.914Z,996.41
2019-02-08T00:30:12.929Z,996.42
2019-02-08T00:31:12.951Z,996.41
2019-02-08T00:32:12.964Z,996.41
2019-02-08T00:33:12.981Z,996.38
2019-02-08T00:34:12.999Z,996.4
2019-02-08T00:35:13.017Z,996.43
2019-02-08T00:36:13.032Z,996.34
2019-02-08T00:37:13.050Z,996.37
2019-02-08T00:38:13.068Z,996.39
2019-02-08T00:39:13.086Z,996.39
2019-02-08T00:40:13.102Z,996.4
2019-02-08T00:41:13.120Z,996.4
2019-02-08T00:42:13.138Z,996.38
2019-02-08T00:43:13.155Z,996.39
2019-02-08T00:44:13.173Z,996.39
2019-02-08T00:45:13.190Z,996.42
2019-02-08T00:46:13.208Z,996.38
2019-02-08T00:47:13.224Z,996.35
2019-02-08T00:48:13.241Z,996.33
2019-02-08T00:49:13.258Z,996.38
2019-02-08T00:50:13.275Z,996.41
2019-02-08T00:51:13.293Z,996.44
2019-02-08T00:52:13.312Z,996.44
2019-02-08T00:53:13.328Z,996.39
2019-02-08T00:54:13.345Z,996.42
2019-02-08T00:55:13.376Z,996.41
2019-02-08T00:56:13.382Z,996.37
2019-02-08T00:57:13.398Z,996.38
2019-02-08T00:58:13.415Z,996.38
2019-02-08T00:59:13.434Z,996.41
2019-02-08T01:00:13.450Z,996.38
2019-02-08T01:01:13.469Z,996.4
2019-02-08T01:02:13.486Z,996.38
2019-02-08T01:03:13.503Z,996.39
2019-02-08T01:04:13.521Z,996.41
2019-02-08T01:05:13.537Z,996.4
2019-02-08T01:06:13.555Z,996.41
2019-02-08T01:07:13.573Z,996.4
2019-02-08T01:08:13.591Z,996.41
2019-02-08T01:09:13.608Z,996.41
2019-02-08T01:10:13.624Z,996.39
2019-02-08T01:11:13.643Z,996.43
2019-02-08T01:12:13.659Z,996.43
2019-02-08T01:13:13.677Z,996.44
2019-02-08T01:14:13.696Z,996.48
2019-02-08T01:15:13.712Z,996.46
2019-02-08T01:16:13.730Z,996.53
2019-02-08T01:17:13.746Z,996.48
2019-02-08T01:18:13.765Z,996.48
2019-02-08T01:19:13.785Z,996.47
2019-02-08T01:20:13.799Z,996.53
2019-02-08T01:21:13.817Z,996.45
2019-02-08T01:22:13.834Z,996.47
2019-02-08T01:23:13.851Z,996.45
2019-02-08T01:24:13.868Z,996.44
2019-02-08T01:25:14.041Z,996.52
2019-02-08T01:26:13.903Z,996.58
2019-02-08T01:27:13.921Z,996.55
2019-02-08T01:28:13.937Z,996.56
2019-02-08T01:29:13.957Z,996.52
2019-02-08T01:30:13.974Z,996.55
2019-02-08T01:31:13.990Z,996.5
2019-02-08T01:32:14.009Z,996.58
2019-02-08T01:33:14.025Z,996.55
2019-02-08T01:34:14.041Z,996.61
2019-02-08T01:35:14.059Z,996.59
2019-02-08T01:36:14.077Z,996.58
2019-02-08T01:37:14.095Z,996.56
2019-02-08T01:38:14.112Z,996.61
2019-02-08T01:39:14.129Z,996.65
2019-02-08T01:40:14.146Z,996.66
2019-02-08T01:41:14.165Z,996.61
2019-02-08T01:42:14.180Z,996.61
2019-02-08T01:43:14.198Z,996.65
2019-02-08T01:44:14.216Z,996.6
2019-02-08T01:45:14.236Z,996.57
2019-02-08T01:46:14.251Z,996.58
2019-02-08T01:47:14.268Z,996.59
2019-02-08T01:48:14.286Z,996.59
2019-02-08T01:49:14.303Z,996.62
2019-02-08T01:50:14.320Z,996.59
2019-02-08T01:51:14.337Z,996.53
2019-02-08T01:52:14.356Z,996.52
2019-02-08T01:53:14.373Z,996.55
2019-02-08T01:54:14.390Z,996.55
2019-02-08T01:55:14.406Z,996.6
2019-02-08T01:56:14.424Z,996.59
2019-02-08T01:57:14.442Z,996.6
2019-02-08T01:58:14.458Z,996.6
2019-02-08T01:59:14.477Z,996.67
2019-02-08T02:00:14.494Z,996.63
2019-02-08T02:01:14.512Z,996.66
2019-02-08T02:02:14.530Z,996.62
2019-02-08T02:03:14.549Z,996.63
2019-02-08T02:04:14.566Z,996.68
2019-02-08T02:05:14.582Z,996.66
2019-02-08T02:06:14.600Z,996.65
2019-02-08T02:07:14.615Z,996.67
2019-02-08T02:08:14.633Z,996.66
2019-02-08T02:09:14.651Z,996.68
2019-02-08T02:10:14.670Z,996.63
2019-02-08T02:11:14.686Z,996.61
2019-02-08T02:12:14.703Z,996.62
2019-02-08T02:13:14.720Z,996.59
2019-02-08T02:14:14.737Z,996.65
2019-02-08T02:15:14.757Z,996.57
2019-02-08T02:16:14.773Z,996.63
2019-02-08T02:17:14.790Z,996.63
2019-02-08T02:18:14.807Z,996.62
2019-02-08T02:19:14.825Z,996.65
2019-02-08T02:20:14.844Z,996.64
2019-02-08T02:21:14.861Z,996.65
2019-02-08T02:22:14.878Z,996.64
2019-02-08T02:23:14.896Z,996.7
2019-02-08T02:24:14.914Z,996.64
2019-02-08T02:25:14.937Z,996.71
2019-02-08T02:26:14.947Z,996.72
2019-02-08T02:27:14.965Z,996.69
2019-02-08T02:28:14.984Z,996.74
2019-02-08T02:29:15.000Z,996.72
2019-02-08T02:30:15.019Z,996.75
2019-02-08T02:31:15.035Z,996.74
2019-02-08T02:32:15.052Z,996.71
2019-02-08T02:33:15.069Z,996.73
2019-02-08T02:34:15.087Z,996.82
2019-02-08T02:35:15.104Z,996.76
2019-02-08T02:36:15.129Z,996.75
2019-02-08T02:37:15.144Z,996.76
2019-02-08T02:38:15.157Z,996.78
2019-02-08T02:39:15.175Z,996.81
2019-02-08T02:40:15.191Z,996.84
2019-02-08T02:41:15.210Z,996.81
2019-02-08T02:42:15.226Z,996.8
2019-02-08T02:43:15.244Z,996.77
2019-02-08T02:44:15.261Z,996.78
2019-02-08T02:45:15.278Z,996.76
2019-02-08T02:46:15.295Z,996.86
2019-02-08T02:47:15.313Z,996.87
2019-02-08T02:48:15.331Z,996.81
2019-02-08T02:49:15.351Z,996.89
2019-02-08T02:50:15.366Z,996.82
2019-02-08T02:51:15.383Z,996.86
2019-02-08T02:52:15.400Z,996.87
2019-02-08T02:53:15.419Z,996.89
2019-02-08T02:54:15.438Z,996.87
2019-02-08T02:55:15.456Z,996.9
2019-02-08T02:56:15.471Z,996.86
2019-02-08T02:57:15.488Z,996.87
2019-02-08T02:58:15.505Z,996.88
2019-02-08T02:59:15.522Z,996.84
2019-02-08T03:00:15.540Z,996.83
2019-02-08T03:01:15.560Z,996.82
2019-02-08T03:02:15.575Z,996.85
2019-02-08T03:03:15.595Z,996.9
2019-02-08T03:04:15.610Z,996.86
2019-02-08T03:05:15.629Z,996.88
2019-02-08T03:06:15.644Z,996.87
2019-02-08T03:07:15.664Z,996.9
2019-02-08T03:08:15.680Z,996.86
2019-02-08T03:09:15.698Z,996.89
2019-02-08T03:10:15.715Z,996.89
2019-02-08T03:11:15.733Z,996.9
2019-02-08T03:12:15.753Z,996.84
2019-02-08T03:13:15.767Z,996.89
2019-02-08T03:14:15.785Z,996.89
2019-02-08T03:15:15.802Z,996.87
2019-02-08T03:16:15.820Z,996.9
2019-02-08T03:17:15.835Z,996.9
2019-02-08T03:18:15.854Z,996.91
2019-02-08T03:19:15.874Z,996.87
2019-02-08T03:20:15.893Z,996.91
2019-02-08T03:21:15.906Z,996.89
2019-02-08T03:22:15.923Z,996.85
2019-02-08T03:23:15.942Z,996.87
2019-02-08T03:24:15.958Z,996.89
2019-02-08T03:25:15.975Z,996.9
2019-02-08T03:26:15.994Z,996.89
2019-02-08T03:27:16.010Z,996.84
2019-02-08T03:28:16.031Z,996.85
2019-02-08T03:29:16.044Z,996.81
2019-02-08T03:30:16.065Z,996.79
2019-02-08T03:31:16.080Z,996.79
2019-02-08T03:32:16.102Z,996.76
2019-02-08T03:33:16.127Z,996.69
2019-02-08T03:34:16.132Z,996.75
2019-02-08T03:35:16.149Z,996.77
2019-02-08T03:36:16.166Z,996.76
2019-02-08T03:37:16.183Z,996.76
2019-02-08T03:38:16.201Z,996.78
2019-02-08T03:39:16.218Z,996.77
2019-02-08T03:40:16.240Z,996.8
2019-02-08T03:41:16.256Z,996.78
2019-02-08T03:42:16.270Z,996.86
2019-02-08T03:43:16.289Z,996.8
2019-02-08T03:44:16.304Z,996.8
2019-02-08T03:45:16.324Z,996.76
2019-02-08T03:46:16.339Z,996.82
2019-02-08T03:47:16.357Z,996.81
2019-02-08T03:48:16.408Z,996.79
2019-02-08T03:49:16.391Z,996.77
2019-02-08T03:50:16.413Z,996.78
2019-02-08T03:51:16.426Z,996.81
2019-02-08T03:52:16.444Z,996.84
2019-02-08T03:53:16.508Z,996.82
2019-02-08T03:54:21.063Z,996.81
2019-02-08T03:55:16.496Z,996.76
2019-02-08T03:56:16.513Z,996.73
2019-02-08T03:57:16.530Z,996.73
2019-02-08T03:58:16.548Z,996.74
2019-02-08T03:59:16.565Z,996.71
2019-02-08T04:00:16.582Z,996.7
2019-02-08T04:01:16.600Z,996.71
2019-02-08T04:02:16.617Z,996.7
2019-02-08T04:03:16.635Z,996.69
2019-02-08T04:04:16.650Z,996.74
2019-02-08T04:05:16.669Z,996.74
2019-02-08T04:06:16.687Z,996.73
2019-02-08T04:07:16.704Z,996.71
2019-02-08T04:08:16.720Z,996.73
2019-02-08T04:09:16.737Z,996.73
2019-02-08T04:10:16.755Z,996.69
2019-02-08T04:11:16.772Z,996.67
2019-02-08T04:12:16.790Z,996.7
2019-02-08T04:13:16.808Z,996.75
2019-02-08T04:14:16.824Z,996.71
2019-02-08T04:15:16.841Z,996.7
2019-02-08T04:16:16.857Z,996.72
2019-02-08T04:17:16.876Z,996.71
2019-02-08T04:18:16.893Z,996.69
2019-02-08T04:19:16.912Z,996.67
2019-02-08T04:20:16.927Z,996.67
2019-02-08T04:21:16.943Z,996.65
2019-02-08T04:22:16.961Z,996.71
2019-02-08T04:23:16.977Z,996.64
2019-02-08T04:24:16.995Z,996.62
2019-02-08T04:25:17.014Z,996.64
2019-02-08T04:26:17.030Z,996.6
2019-02-08T04:27:17.049Z,996.65
2019-02-08T04:28:17.122Z,996.64
2019-02-08T04:29:17.087Z,996.62
2019-02-08T04:30:17.098Z,996.57
2019-02-08T04:31:17.123Z,996.59
2019-02-08T04:32:17.134Z,996.54
2019-02-08T04:33:17.151Z,996.57
2019-02-08T04:34:17.168Z,996.51
2019-02-08T04:35:17.184Z,996.55
2019-02-08T04:36:17.201Z,996.56
2019-02-08T04:37:17.219Z,996.53
2019-02-08T04:38:18.423Z,996.55
2019-02-08T04:39:17.253Z,996.53
2019-02-08T04:40:17.270Z,996.56
2019-02-08T04:41:17.288Z,996.56
2019-02-08T04:42:17.305Z,996.63
2019-02-08T04:43:17.333Z,996.59
2019-02-08T04:44:17.342Z,996.61
2019-02-08T04:45:17.356Z,996.54
2019-02-08T04:46:17.373Z,996.53
2019-02-08T04:47:17.391Z,996.57
2019-02-08T04:48:17.408Z,996.51
2019-02-08T04:49:17.425Z,996.56
2019-02-08T04:50:17.441Z,996.53
2019-02-08T04:51:17.462Z,996.56
2019-02-08T04:52:17.476Z,996.62
2019-02-08T04:53:17.493Z,996.69
2019-02-08T04:54:17.509Z,996.72
2019-02-08T04:55:17.526Z,996.74
2019-02-08T04:56:17.543Z,996.72
2019-02-08T04:57:17.561Z,996.63
2019-02-08T04:58:17.577Z,996.7
2019-02-08T04:59:17.601Z,996.68
2019-02-08T05:00:17.612Z,996.65
2019-02-08T05:01:17.629Z,996.64
2019-02-08T05:02:17.647Z,996.68
2019-02-08T05:03:17.661Z,996.63
2019-02-08T05:04:17.680Z,996.65
2019-02-08T05:05:17.698Z,996.66
2019-02-08T05:06:17.716Z,996.67
2019-02-08T05:07:17.732Z,996.65
2019-02-08T05:08:17.748Z,996.68
2019-02-08T05:09:17.767Z,996.64
2019-02-08T05:10:17.782Z,996.65
2019-02-08T05:11:17.822Z,996.68
2019-02-08T05:12:17.817Z,996.72
2019-02-08T05:13:17.834Z,996.61
2019-02-08T05:14:17.851Z,996.66
2019-02-08T05:15:17.870Z,996.65
2019-02-08T05:16:17.886Z,996.63
2019-02-08T05:17:17.903Z,996.55
2019-02-08T05:18:17.920Z,996.55
2019-02-08T05:19:17.943Z,996.59
2019-02-08T05:20:17.954Z,996.54
2019-02-08T05:21:17.971Z,996.56
2019-02-08T05:22:17.990Z,996.5
2019-02-08T05:23:18.007Z,996.56
2019-02-08T05:24:18.023Z,996.56
2019-02-08T05:25:18.039Z,996.53
2019-02-08T05:26:18.057Z,996.51
2019-02-08T05:27:18.075Z,996.48
2019-02-08T05:28:18.090Z,996.52
2019-02-08T05:29:18.108Z,996.48
2019-02-08T05:30:18.126Z,996.47
2019-02-08T05:31:18.143Z,996.49
2019-02-08T05:32:18.158Z,996.51
2019-02-08T05:33:18.177Z,996.45
2019-02-08T05:34:18.195Z,996.47
2019-02-08T05:35:18.210Z,996.54
2019-02-08T05:36:18.228Z,996.58
2019-02-08T05:37:18.246Z,996.48
2019-02-08T05:38:18.262Z,996.48
2019-02-08T05:39:18.279Z,996.46
2019-02-08T05:40:18.296Z,996.44
2019-02-08T05:41:18.314Z,996.41
2019-02-08T05:42:18.331Z,996.4
2019-02-08T05:43:18.404Z,996.4
2019-02-08T05:44:18.373Z,996.34
2019-02-08T05:45:18.382Z,996.36
2019-02-08T05:46:18.398Z,996.33
2019-02-08T05:47:18.416Z,996.4
2019-02-08T05:48:18.433Z,996.39
2019-02-08T05:49:18.451Z,996.35
2019-02-08T05:50:18.469Z,996.27
2019-02-08T05:51:18.486Z,996.29
2019-02-08T05:52:18.505Z,996.29
2019-02-08T05:53:18.519Z,996.31
2019-02-08T05:54:18.537Z,996.29
2019-02-08T05:55:18.554Z,996.29
2019-02-08T05:56:18.571Z,996.24
2019-02-08T05:57:18.590Z,996.24
2019-02-08T05:58:18.605Z,996.23
2019-02-08T05:59:18.629Z,996.25
2019-02-08T06:00:18.639Z,996.24
2019-02-08T06:01:18.654Z,996.22
2019-02-08T06:02:18.676Z,996.17
2019-02-08T06:03:18.697Z,996.13
2019-02-08T06:04:18.708Z,996.16
2019-02-08T06:05:18.725Z,996.08
2019-02-08T06:06:18.743Z,996.11
2019-02-08T06:07:18.759Z,996.09
2019-02-08T06:08:18.776Z,996.04
2019-02-08T06:09:18.795Z,996.12
2019-02-08T06:10:18.810Z,996.11
2019-02-08T06:11:18.828Z,996.17
2019-02-08T06:12:18.845Z,996.15
2019-02-08T06:13:18.861Z,996.17
2019-02-08T06:14:18.879Z,996.2
2019-02-08T06:15:18.896Z,996.21
2019-02-08T06:16:18.914Z,996.22
2019-02-08T06:17:18.929Z,996.24
2019-02-08T06:18:18.948Z,996.21
2019-02-08T06:19:18.966Z,996.2
2019-02-08T06:20:18.982Z,996.23
2019-02-08T06:21:19.000Z,996.19
2019-02-08T06:22:19.107Z,996.15
2019-02-08T06:23:19.032Z,996.13
2019-02-08T06:24:19.050Z,996.08
2019-02-08T06:25:19.068Z,996.03
2019-02-08T06:26:19.087Z,996.03
2019-02-08T06:27:19.100Z,996.07
2019-02-08T06:28:19.118Z,996.05
2019-02-08T06:29:19.136Z,996.03
2019-02-08T06:30:19.152Z,996.08
2019-02-08T06:31:19.170Z,996.03
2019-02-08T06:32:19.187Z,996
2019-02-08T06:33:19.204Z,996.01
2019-02-08T06:34:19.222Z,996.07
2019-02-08T06:35:19.239Z,996.01
2019-02-08T06:36:19.257Z,995.99
2019-02-08T06:37:19.280Z,996.04
2019-02-08T06:38:19.291Z,996
2019-02-08T06:39:19.310Z,996.03
2019-02-08T06:40:19.324Z,996.07
2019-02-08T06:41:19.342Z,996.19
2019-02-08T06:42:19.358Z,996.18
2019-02-08T06:43:19.375Z,996.19
2019-02-08T06:44:19.394Z,996.21
2019-02-08T06:45:19.410Z,996.13
2019-02-08T06:46:19.426Z,996.02
2019-02-08T06:47:19.444Z,996.06
2019-02-08T06:48:19.462Z,996.04
2019-02-08T06:49:19.479Z,996.07
2019-02-08T06:50:19.497Z,996.16
2019-02-08T06:51:19.517Z,996.17
2019-02-08T06:52:19.531Z,996.17
2019-02-08T06:53:19.548Z,996.2
2019-02-08T06:54:19.567Z,996.1
2019-02-08T06:55:19.586Z,996.13
2019-02-08T06:56:19.601Z,996.16
2019-02-08T06:57:19.615Z,996.1
2019-02-08T06:58:19.633Z,996.13
2019-02-08T06:59:19.650Z,996.13
2019-02-08T07:00:19.668Z,996.12
2019-02-08T07:01:19.685Z,996.18
2019-02-08T07:02:19.704Z,996.2
2019-02-08T07:03:19.720Z,996.19
2019-02-08T07:04:21.412Z,996.21
2019-02-08T07:05:19.756Z,996.25
2019-02-08T07:06:19.773Z,996.24
2019-02-08T07:07:19.789Z,996.26
2019-02-08T07:08:19.807Z,996.26
2019-02-08T07:09:19.823Z,996.27
2019-02-08T07:10:19.841Z,996.23
2019-02-08T07:11:19.857Z,996.22
2019-02-08T07:12:19.874Z,996.22
2019-02-08T07:13:19.892Z,996.25
2019-02-08T07:14:19.908Z,996.3
2019-02-08T07:15:19.926Z,996.22
2019-02-08T07:16:19.943Z,996.26
2019-02-08T07:17:19.961Z,996.27
2019-02-08T07:18:19.977Z,996.31
2019-02-08T07:19:19.995Z,996.26
2019-02-08T07:20:20.011Z,996.28
2019-02-08T07:21:20.027Z,996.25
2019-02-08T07:22:20.045Z,996.27
2019-02-08T07:23:20.063Z,996.25
2019-02-08T07:24:20.081Z,996.34
2019-02-08T07:25:20.098Z,996.28
2019-02-08T07:26:20.114Z,996.37
2019-02-08T07:27:20.132Z,996.28
2019-02-08T07:28:20.150Z,996.31
2019-02-08T07:29:20.165Z,996.34
2019-02-08T07:30:20.182Z,996.25
2019-02-08T07:31:20.200Z,996.29
2019-02-08T07:32:20.216Z,996.34
2019-02-08T07:33:20.263Z,996.35
2019-02-08T07:34:20.277Z,996.36
2019-02-08T07:35:20.270Z,996.32
2019-02-08T07:36:20.287Z,996.39
2019-02-08T07:37:20.304Z,996.32
2019-02-08T07:38:20.320Z,996.25
2019-02-08T07:39:20.338Z,996.26
2019-02-08T07:40:20.355Z,996.29
2019-02-08T07:41:20.373Z,996.33
2019-02-08T07:42:20.389Z,996.32
2019-02-08T07:43:20.405Z,996.34
2019-02-08T07:44:20.424Z,996.35
2019-02-08T07:45:20.441Z,996.34
2019-02-08T07:46:20.458Z,996.34
2019-02-08T07:47:20.476Z,996.31
2019-02-08T07:48:20.492Z,996.37
2019-02-08T07:49:20.509Z,996.33
2019-02-08T07:50:20.527Z,996.33
2019-02-08T07:51:20.548Z,996.32
2019-02-08T07:52:20.561Z,996.23
2019-02-08T07:53:20.582Z,996.34
2019-02-08T07:54:20.594Z,996.33
2019-02-08T07:55:25.883Z,996.31
2019-02-08T07:56:20.628Z,996.37
2019-02-08T07:57:20.646Z,996.36
2019-02-08T07:58:20.663Z,996.36
2019-02-08T07:59:20.681Z,996.36
2019-02-08T08:00:20.706Z,996.42
2019-02-08T08:01:20.720Z,996.44
2019-02-08T08:02:20.734Z,996.36
2019-02-08T08:03:20.750Z,996.4
2019-02-08T08:04:20.767Z,996.39
2019-02-08T08:05:20.784Z,996.34
2019-02-08T08:06:20.801Z,996.37
2019-02-08T08:07:20.821Z,996.36
2019-02-08T08:08:20.835Z,996.37
2019-02-08T08:09:20.857Z,996.32
2019-02-08T08:10:20.871Z,996.4
2019-02-08T08:11:20.888Z,996.34
2019-02-08T08:12:20.906Z,996.4
2019-02-08T08:13:20.921Z,996.34
2019-02-08T08:14:20.939Z,996.23
2019-02-08T08:15:20.956Z,996.25
2019-02-08T08:16:20.974Z,996.28
2019-02-08T08:17:20.994Z,996.33
2019-02-08T08:18:21.011Z,996.33
2019-02-08T08:19:21.032Z,996.26
2019-02-08T08:20:21.044Z,996.28
2019-02-08T08:21:21.063Z,996.31
2019-02-08T08:22:21.082Z,996.28
2019-02-08T08:23:21.095Z,996.37
2019-02-08T08:24:21.115Z,996.36
2019-02-08T08:25:21.135Z,996.34
2019-02-08T08:26:21.149Z,996.37
2019-02-08T08:27:21.165Z,996.35
2019-02-08T08:28:21.184Z,996.33
2019-02-08T08:29:21.202Z,996.24
2019-02-08T08:30:21.222Z,996.29
2019-02-08T08:31:21.237Z,996.39
2019-02-08T08:32:21.253Z,996.32
2019-02-08T08:33:21.275Z,996.32
2019-02-08T08:34:21.290Z,996.29
2019-02-08T08:35:21.307Z,996.37
2019-02-08T08:36:21.323Z,996.36
2019-02-08T08:37:21.341Z,996.33
2019-02-08T08:38:21.360Z,996.32
2019-02-08T08:39:21.377Z,996.25
2019-02-08T08:40:21.393Z,996.36
2019-02-08T08:41:21.411Z,996.37
2019-02-08T08:42:21.427Z,996.31
2019-02-08T08:43:21.447Z,996.29
2019-02-08T08:44:21.466Z,996.34
2019-02-08T08:45:21.481Z,996.36
2019-02-08T08:46:21.498Z,996.33
2019-02-08T08:47:21.522Z,996.36
2019-02-08T08:48:21.535Z,996.36
2019-02-08T08:49:21.552Z,996.34
2019-02-08T08:50:21.570Z,996.35
2019-02-08T08:51:21.587Z,996.35
2019-02-08T08:52:21.605Z,996.32
2019-02-08T08:53:21.622Z,996.32
2019-02-08T08:54:21.640Z,996.31
2019-02-08T08:55:21.656Z,996.33
2019-02-08T08:56:21.674Z,996.41
2019-02-08T08:57:21.694Z,996.33
2019-02-08T08:58:21.709Z,996.32
2019-02-08T08:59:21.738Z,996.32
2019-02-08T09:00:21.744Z,996.31
2019-02-08T09:01:21.761Z,996.3
2019-02-08T09:02:21.780Z,996.29
2019-02-08T09:03:21.797Z,996.29
2019-02-08T09:04:21.814Z,996.34
2019-02-08T09:05:21.831Z,996.3
2019-02-08T09:06:21.851Z,996.3
2019-02-08T09:07:21.867Z,996.36
2019-02-08T09:08:21.883Z,996.33
2019-02-08T09:09:21.900Z,996.34
2019-02-08T09:10:21.919Z,996.31
2019-02-08T09:11:21.937Z,996.3
2019-02-08T09:12:21.954Z,996.37
2019-02-08T09:13:21.979Z,996.33
2019-02-08T09:14:21.989Z,996.3
2019-02-08T09:15:22.006Z,996.28
2019-02-08T09:16:22.024Z,996.29
2019-02-08T09:17:22.041Z,996.32
2019-02-08T09:18:22.062Z,996.33
2019-02-08T09:19:22.077Z,996.33
2019-02-08T09:20:22.094Z,996.29
2019-02-08T09:21:22.112Z,996.32
2019-02-08T09:22:22.129Z,996.31
2019-02-08T09:23:22.150Z,996.28
2019-02-08T09:24:22.164Z,996.25
2019-02-08T09:25:22.182Z,996.25
2019-02-08T09:26:22.269Z,996.26
2019-02-08T09:27:22.218Z,996.24
2019-02-08T09:28:22.234Z,996.23
2019-02-08T09:29:22.253Z,996.19
2019-02-08T09:30:22.271Z,996.19
2019-02-08T09:31:22.289Z,996.24
2019-02-08T09:32:22.306Z,996.19
2019-02-08T09:33:22.324Z,996.3
2019-02-08T09:34:22.340Z,996.24
2019-02-08T09:35:22.358Z,996.21
2019-02-08T09:36:22.376Z,996.29
2019-02-08T09:37:22.394Z,996.26
2019-02-08T09:38:22.410Z,996.29
2019-02-08T09:39:22.430Z,996.2
2019-02-08T09:40:22.446Z,996.2
2019-02-08T09:41:22.465Z,996.21
2019-02-08T09:42:22.482Z,996.23
2019-02-08T09:43:22.500Z,996.24
2019-02-08T09:44:22.520Z,996.22
2019-02-08T09:45:22.534Z,996.18
2019-02-08T09:46:22.559Z,996.14
2019-02-08T09:47:22.570Z,996.14
2019-02-08T09:48:22.588Z,996.21
2019-02-08T09:49:22.606Z,996.16
2019-02-08T09:50:22.623Z,996.12
2019-02-08T09:51:22.640Z,996.06
2019-02-08T09:52:22.658Z,996.11
2019-02-08T09:53:22.676Z,996.14
2019-02-08T09:54:22.695Z,996.07
2019-02-08T09:55:22.712Z,996.14
2019-02-08T09:56:22.730Z,996.1
2019-02-08T09:57:22.747Z,996.02
2019-02-08T09:58:22.765Z,996.07
2019-02-08T09:59:22.785Z,996.04
2019-02-08T10:00:22.801Z,996.1
2019-02-08T10:01:22.821Z,995.97
2019-02-08T10:02:22.836Z,996.05
2019-02-08T10:03:22.855Z,995.98
2019-02-08T10:04:22.873Z,996.02
2019-02-08T10:05:22.889Z,996.07
2019-02-08T10:06:22.911Z,995.99
2019-02-08T10:07:22.924Z,996.05
2019-02-08T10:08:22.944Z,996.04
2019-02-08T10:09:22.960Z,996.1
2019-02-08T10:10:22.978Z,996.16
2019-02-08T10:11:22.996Z,996.18
2019-02-08T10:12:23.014Z,996.05
2019-02-08T10:13:23.032Z,996.06
2019-02-08T10:14:23.049Z,996.1
2019-02-08T10:15:23.067Z,996.09
2019-02-08T10:16:23.085Z,996.05
2019-02-08T10:17:23.103Z,996.03
2019-02-08T10:18:23.121Z,996.03
2019-02-08T10:19:23.139Z,996.09
2019-02-08T10:20:23.157Z,996.07
2019-02-08T10:21:23.173Z,996.07
2019-02-08T10:22:23.192Z,996.1
2019-02-08T10:23:23.210Z,996.03
2019-02-08T10:24:23.230Z,996.06
2019-02-08T10:25:23.246Z,996.03
2019-02-08T10:26:23.263Z,996.05
2019-02-08T10:27:23.281Z,996.09
2019-02-08T10:28:23.299Z,996
2019-02-08T10:29:23.316Z,996.07
2019-02-08T10:30:23.337Z,996.09
2019-02-08T10:31:23.353Z,996.08
2019-02-08T10:32:23.370Z,996.13
2019-02-08T10:33:23.390Z,996.13
2019-02-08T10:34:23.407Z,996.03
2019-02-08T10:35:23.425Z,996.04
2019-02-08T10:36:23.442Z,996.08
2019-02-08T10:37:23.459Z,996.07
2019-02-08T10:38:23.477Z,996.08
2019-02-08T10:39:23.495Z,996.04
2019-02-08T10:40:23.514Z,996.01
2019-02-08T10:41:30.170Z,996.06
2019-02-08T10:42:23.554Z,996.01
2019-02-08T10:43:23.567Z,995.95
2019-02-08T10:44:23.586Z,995.91
2019-02-08T10:45:23.608Z,995.87
2019-02-08T10:46:23.620Z,995.9
2019-02-08T10:47:23.639Z,995.86
2019-02-08T10:48:23.658Z,995.84
2019-02-08T10:49:23.676Z,995.9
2019-02-08T10:50:23.692Z,995.85
2019-02-08T10:51:23.710Z,995.77
2019-02-08T10:52:24.701Z,995.82
2019-02-08T10:53:23.747Z,995.75
2019-02-08T10:54:23.764Z,995.77
2019-02-08T10:55:23.782Z,995.8
2019-02-08T10:56:23.801Z,995.79
2019-02-08T10:57:23.818Z,995.71
2019-02-08T10:58:23.837Z,995.7
2019-02-08T10:59:23.855Z,995.8
2019-02-08T11:00:23.874Z,995.77
2019-02-08T11:01:23.891Z,995.81
2019-02-08T11:02:23.910Z,995.75
2019-02-08T11:03:23.928Z,995.67
2019-02-08T11:04:23.944Z,995.78
2019-02-08T11:05:23.963Z,995.8
2019-02-08T11:06:23.982Z,995.73
2019-02-08T11:07:27.843Z,995.73
2019-02-08T11:08:24.018Z,995.79
2019-02-08T11:09:24.036Z,995.87
2019-02-08T11:10:24.054Z,995.78
2019-02-08T11:11:24.072Z,995.78
2019-02-08T11:12:24.091Z,995.77
2019-02-08T11:13:24.108Z,995.72
2019-02-08T11:14:24.127Z,995.75
2019-02-08T11:15:24.143Z,995.72
2019-02-08T11:16:24.161Z,995.63
2019-02-08T11:17:24.181Z,995.69
2019-02-08T11:18:24.200Z,995.65
2019-02-08T11:19:24.217Z,995.57
2019-02-08T11:20:24.235Z,995.71
2019-02-08T11:21:24.255Z,995.6
2019-02-08T11:22:24.271Z,995.69
2019-02-08T11:23:24.291Z,995.63
2019-02-08T11:24:24.325Z,995.72
2019-02-08T11:25:24.325Z,995.62
2019-02-08T11:26:24.613Z,995.59
2019-02-08T11:27:24.360Z,995.56
2019-02-08T11:28:24.379Z,995.46
2019-02-08T11:29:24.397Z,995.45
2019-02-08T11:30:24.415Z,995.48
2019-02-08T11:31:24.434Z,995.46
2019-02-08T11:32:24.452Z,995.36
2019-02-08T11:33:24.469Z,995.38
2019-02-08T11:34:24.488Z,995.36
2019-02-08T11:35:24.507Z,995.36
2019-02-08T11:36:24.528Z,995.39
2019-02-08T11:37:24.542Z,995.41
2019-02-08T11:38:24.561Z,995.4
2019-02-08T11:39:24.579Z,995.34
2019-02-08T11:40:24.598Z,995.32
2019-02-08T11:41:24.615Z,995.31
2019-02-08T11:42:24.633Z,995.3
2019-02-08T11:43:24.653Z,995.3
2019-02-08T11:44:24.671Z,995.28
2019-02-08T11:45:24.689Z,995.35
2019-02-08T11:46:24.708Z,995.32
2019-02-08T11:47:24.725Z,995.26
2019-02-08T11:48:24.743Z,995.31
2019-02-08T11:49:24.762Z,995.23
2019-02-08T11:50:24.780Z,995.28
2019-02-08T11:51:24.799Z,995.25
2019-02-08T11:52:24.816Z,995.32
2019-02-08T11:53:24.835Z,995.29
2019-02-08T11:54:24.852Z,995.31
2019-02-08T11:55:24.870Z,995.18
2019-02-08T11:56:29.836Z,995.18
2019-02-08T11:57:24.909Z,995.15
2019-02-08T11:58:24.925Z,995.14
2019-02-08T11:59:24.944Z,995.17
2019-02-08T12:00:24.963Z,995.09
2019-02-08T12:01:24.982Z,995.11
2019-02-08T12:02:24.999Z,995.08
2019-02-08T12:03:25.018Z,995.09
2019-02-08T12:04:25.038Z,995.06
2019-02-08T12:05:25.054Z,995.03
2019-02-08T12:06:25.072Z,995.07
2019-02-08T12:07:25.091Z,994.94
2019-02-08T12:08:25.110Z,994.99
2019-02-08T12:09:25.127Z,994.98
2019-02-08T12:10:25.146Z,994.99
2019-02-08T12:11:25.163Z,994.95
2019-02-08T12:12:25.182Z,994.97
2019-02-08T12:13:25.202Z,994.97
2019-02-08T12:14:25.219Z,994.99
2019-02-08T12:15:25.237Z,995.01
2019-02-08T12:16:25.257Z,995.04
2019-02-08T12:17:25.274Z,995.07
2019-02-08T12:18:25.293Z,995.07
2019-02-08T12:19:25.360Z,995.01
2019-02-08T12:20:25.331Z,995.06
2019-02-08T12:21:25.352Z,995.05
2019-02-08T12:22:25.364Z,995.03
2019-02-08T12:23:25.383Z,994.98
2019-02-08T12:24:25.453Z,995.07
2019-02-08T12:25:25.420Z,995
2019-02-08T12:26:25.441Z,994.94
2019-02-08T12:27:25.457Z,994.99
2019-02-08T12:28:25.474Z,994.96
2019-02-08T12:29:25.499Z,994.88
2019-02-08T12:30:25.511Z,994.9
2019-02-08T12:31:25.530Z,994.93